sensor_id;sensor_type;location;lat;lon;timestamp;pressure;altitude;pressure_sealevel;temperature;humidity
75555;BME280;66087;53.126;17.960;2023-06-22T00:02:23;101024.17;;;20.65;71.62
75555;BME280;66087;53.126;17.960;2023-06-22T00:04:49;101028.24;;;20.61;71.84
75555;BME280;66087;53.126;17.960;2023-06-22T00:07:16;101028.98;;;20.56;71.97
75555;BME280;66087;53.126;17.960;2023-06-22T00:09:42;101034.65;;;20.51;72.12
75555;BME280;66087;53.126;17.960;2023-06-22T00:12:08;101036.76;;;20.47;72.27
75555;BME280;66087;53.126;17.960;2023-06-22T00:14:34;101040.23;;;20.45;72.59
75555;BME280;66087;53.126;17.960;2023-06-22T00:17:00;101035.80;;;20.40;72.78
75555;BME280;66087;53.126;17.960;2023-06-22T00:19:26;101040.99;;;20.39;72.91
75555;BME280;66087;53.126;17.960;2023-06-22T00:21:52;101041.08;;;20.38;72.73
75555;BME280;66087;53.126;17.960;2023-06-22T00:24:19;101040.35;;;20.39;72.66
75555;BME280;66087;53.126;17.960;2023-06-22T00:26:46;101038.04;;;20.41;72.41
75555;BME280;66087;53.126;17.960;2023-06-22T00:29:13;101044.77;;;20.46;72.49
75555;BME280;66087;53.126;17.960;2023-06-22T00:31:39;101049.85;;;20.48;72.48
75555;BME280;66087;53.126;17.960;2023-06-22T00:34:06;101051.20;;;20.54;72.45
75555;BME280;66087;53.126;17.960;2023-06-22T00:36:33;101056.98;;;20.59;72.44
75555;BME280;66087;53.126;17.960;2023-06-22T00:38:59;101056.58;;;20.59;72.57
75555;BME280;66087;53.126;17.960;2023-06-22T00:41:25;101056.86;;;20.60;72.38
75555;BME280;66087;53.126;17.960;2023-06-22T00:43:56;101059.92;;;20.62;72.29
75555;BME280;66087;53.126;17.960;2023-06-22T00:46:24;101060.29;;;20.62;72.07
75555;BME280;66087;53.126;17.960;2023-06-22T00:48:51;101059.92;;;20.64;72.10
75555;BME280;66087;53.126;17.960;2023-06-22T00:51:21;101058.67;;;20.65;72.03
75555;BME280;66087;53.126;17.960;2023-06-22T00:53:51;101058.71;;;20.62;72.16
75555;BME280;66087;53.126;17.960;2023-06-22T00:56:19;101058.83;;;20.60;72.18
75555;BME280;66087;53.126;17.960;2023-06-22T00:58:46;101059.81;;;20.60;72.18
75555;BME280;66087;53.126;17.960;2023-06-22T01:01:13;101058.25;;;20.57;72.10
75555;BME280;66087;53.126;17.960;2023-06-22T01:03:40;101061.67;;;20.55;72.28
75555;BME280;66087;53.126;17.960;2023-06-22T01:06:31;101061.89;;;20.52;72.21
75555;BME280;66087;53.126;17.960;2023-06-22T01:09:12;101062.81;;;20.44;72.24
75555;BME280;66087;53.126;17.960;2023-06-22T01:11:45;101065.30;;;20.37;72.27
75555;BME280;66087;53.126;17.960;2023-06-22T01:14:26;101073.58;;;20.30;72.16
75555;BME280;66087;53.126;17.960;2023-06-22T01:17:33;101072.84;;;20.22;71.98
75555;BME280;66087;53.126;17.960;2023-06-22T01:20:02;101062.38;;;20.11;71.95
75555;BME280;66087;53.126;17.960;2023-06-22T01:22:43;101069.75;;;20.06;71.77
75555;BME280;66087;53.126;17.960;2023-06-22T01:25:19;101063.95;;;20.00;71.84
75555;BME280;66087;53.126;17.960;2023-06-22T01:30:57;101066.46;;;19.90;71.74
75555;BME280;66087;53.126;17.960;2023-06-22T01:33:34;101062.88;;;19.86;71.85
75555;BME280;66087;53.126;17.960;2023-06-22T01:36:01;101065.00;;;19.82;71.73
75555;BME280;66087;53.126;17.960;2023-06-22T01:38:29;101066.81;;;19.81;71.57
75555;BME280;66087;53.126;17.960;2023-06-22T01:40:57;101062.19;;;19.78;71.60
75555;BME280;66087;53.126;17.960;2023-06-22T01:43:26;101053.52;;;19.69;71.67
75555;BME280;66087;53.126;17.960;2023-06-22T01:45:55;101060.77;;;19.73;71.72
75555;BME280;66087;53.126;17.960;2023-06-22T01:48:42;101066.20;;;19.69;71.69
75555;BME280;66087;53.126;17.960;2023-06-22T01:51:09;101068.84;;;19.65;71.65
75555;BME280;66087;53.126;17.960;2023-06-22T01:53:36;101069.25;;;19.59;71.58
75555;BME280;66087;53.126;17.960;2023-06-22T01:56:04;101063.05;;;19.53;71.61
75555;BME280;66087;53.126;17.960;2023-06-22T01:58:31;101064.06;;;19.48;71.79
75555;BME280;66087;53.126;17.960;2023-06-22T02:01:09;101062.86;;;19.43;71.99
75555;BME280;66087;53.126;17.960;2023-06-22T02:03:40;101066.52;;;19.38;72.14
75555;BME280;66087;53.126;17.960;2023-06-22T02:06:14;101065.85;;;19.32;72.10
75555;BME280;66087;53.126;17.960;2023-06-22T02:08:49;101064.30;;;19.29;72.27
75555;BME280;66087;53.126;17.960;2023-06-22T02:11:41;101065.55;;;19.25;72.42
75555;BME280;66087;53.126;17.960;2023-06-22T02:14:08;101061.71;;;19.19;72.58
75555;BME280;66087;53.126;17.960;2023-06-22T02:16:35;101062.90;;;19.13;72.57
75555;BME280;66087;53.126;17.960;2023-06-22T02:19:03;101068.98;;;19.09;72.70
75555;BME280;66087;53.126;17.960;2023-06-22T02:21:31;101084.11;;;19.05;72.90
75555;BME280;66087;53.126;17.960;2023-06-22T02:23:59;101090.41;;;19.00;73.34
75555;BME280;66087;53.126;17.960;2023-06-22T02:26:26;101096.58;;;18.95;73.60
75555;BME280;66087;53.126;17.960;2023-06-22T02:28:53;101098.08;;;18.91;73.45
75555;BME280;66087;53.126;17.960;2023-06-22T02:31:19;101104.88;;;18.88;73.36
75555;BME280;66087;53.126;17.960;2023-06-22T02:34:07;101102.66;;;18.86;73.42
75555;BME280;66087;53.126;17.960;2023-06-22T02:36:33;101102.78;;;18.84;73.39
75555;BME280;66087;53.126;17.960;2023-06-22T02:39:02;101102.89;;;18.80;73.36
75555;BME280;66087;53.126;17.960;2023-06-22T02:41:31;101103.74;;;18.79;73.28
75555;BME280;66087;53.126;17.960;2023-06-22T02:43:57;101104.48;;;18.76;73.37
75555;BME280;66087;53.126;17.960;2023-06-22T02:46:23;101095.67;;;18.74;73.25
75555;BME280;66087;53.126;17.960;2023-06-22T02:48:49;101099.68;;;18.72;73.06
75555;BME280;66087;53.126;17.960;2023-06-22T02:51:16;101100.95;;;18.70;73.07
75555;BME280;66087;53.126;17.960;2023-06-22T02:53:43;101103.12;;;18.68;72.93
75555;BME280;66087;53.126;17.960;2023-06-22T02:56:12;101101.75;;;18.68;72.91
75555;BME280;66087;53.126;17.960;2023-06-22T02:58:39;101097.73;;;18.68;72.83
75555;BME280;66087;53.126;17.960;2023-06-22T03:01:07;101096.61;;;18.68;72.70
75555;BME280;66087;53.126;17.960;2023-06-22T03:03:36;101106.38;;;18.68;72.87
75555;BME280;66087;53.126;17.960;2023-06-22T03:06:02;101111.79;;;18.68;72.75
75555;BME280;66087;53.126;17.960;2023-06-22T03:08:29;101108.09;;;18.70;72.69
75555;BME280;66087;53.126;17.960;2023-06-22T03:10:56;101111.16;;;18.72;72.81
75555;BME280;66087;53.126;17.960;2023-06-22T03:13:22;101119.92;;;18.72;72.77
75555;BME280;66087;53.126;17.960;2023-06-22T03:16:09;101123.80;;;18.71;72.64
75555;BME280;66087;53.126;17.960;2023-06-22T03:18:36;101122.70;;;18.71;72.59
75555;BME280;66087;53.126;17.960;2023-06-22T03:21:04;101127.08;;;18.72;72.57
75555;BME280;66087;53.126;17.960;2023-06-22T03:23:31;101126.71;;;18.73;72.67
75555;BME280;66087;53.126;17.960;2023-06-22T03:25:57;101130.77;;;18.74;72.70
75555;BME280;66087;53.126;17.960;2023-06-22T03:28:32;101125.64;;;18.72;72.52
75555;BME280;66087;53.126;17.960;2023-06-22T03:30:58;101125.36;;;18.73;72.64
75555;BME280;66087;53.126;17.960;2023-06-22T03:33:25;101130.86;;;18.73;72.63
75555;BME280;66087;53.126;17.960;2023-06-22T03:35:51;101131.70;;;18.74;72.66
75555;BME280;66087;53.126;17.960;2023-06-22T03:38:18;101133.45;;;18.74;72.45
75555;BME280;66087;53.126;17.960;2023-06-22T03:40:44;101136.23;;;18.73;72.59
75555;BME280;66087;53.126;17.960;2023-06-22T03:43:11;101134.85;;;18.72;72.57
75555;BME280;66087;53.126;17.960;2023-06-22T03:45:37;101139.47;;;18.73;72.39
75555;BME280;66087;53.126;17.960;2023-06-22T03:48:23;101149.66;;;18.72;72.45
75555;BME280;66087;53.126;17.960;2023-06-22T03:50:49;101158.00;;;18.70;72.41
75555;BME280;66087;53.126;17.960;2023-06-22T03:53:16;101157.98;;;18.71;72.58
75555;BME280;66087;53.126;17.960;2023-06-22T03:55:51;101150.89;;;18.71;72.58
75555;BME280;66087;53.126;17.960;2023-06-22T03:58:20;101147.65;;;18.71;72.50
75555;BME280;66087;53.126;17.960;2023-06-22T04:00:50;101148.41;;;18.74;72.59
75555;BME280;66087;53.126;17.960;2023-06-22T04:03:16;101147.71;;;18.78;72.31
75555;BME280;66087;53.126;17.960;2023-06-22T04:05:44;101152.55;;;18.81;72.32
75555;BME280;66087;53.126;17.960;2023-06-22T04:08:13;101151.89;;;18.82;72.49
75555;BME280;66087;53.126;17.960;2023-06-22T04:10:41;101157.09;;;18.83;72.27
75555;BME280;66087;53.126;17.960;2023-06-22T04:13:08;101158.00;;;18.87;72.27
75555;BME280;66087;53.126;17.960;2023-06-22T04:15:35;101154.86;;;18.90;72.25
75555;BME280;66087;53.126;17.960;2023-06-22T04:18:04;101150.67;;;18.95;72.09
75555;BME280;66087;53.126;17.960;2023-06-22T04:20:31;101156.69;;;18.98;72.16
75555;BME280;66087;53.126;17.960;2023-06-22T04:22:57;101158.16;;;19.03;72.09
75555;BME280;66087;53.126;17.960;2023-06-22T04:25:25;101158.77;;;19.08;72.03
75555;BME280;66087;53.126;17.960;2023-06-22T04:27:51;101160.54;;;19.12;72.09
75555;BME280;66087;53.126;17.960;2023-06-22T04:30:17;101156.81;;;19.14;71.98
75555;BME280;66087;53.126;17.960;2023-06-22T04:32:44;101157.52;;;19.21;71.91
75555;BME280;66087;53.126;17.960;2023-06-22T04:35:11;101151.31;;;19.28;71.72
75555;BME280;66087;53.126;17.960;2023-06-22T04:37:58;101150.02;;;19.35;71.62
75555;BME280;66087;53.126;17.960;2023-06-22T04:40:24;101151.23;;;19.40;71.48
75555;BME280;66087;53.126;17.960;2023-06-22T04:42:50;101152.58;;;19.48;71.37
75555;BME280;66087;53.126;17.960;2023-06-22T04:45:36;101154.70;;;19.55;71.20
75555;BME280;66087;53.126;17.960;2023-06-22T04:48:05;101171.08;;;19.63;70.86
75555;BME280;66087;53.126;17.960;2023-06-22T04:50:31;101163.64;;;19.68;71.00
75555;BME280;66087;53.126;17.960;2023-06-22T04:53:01;101165.73;;;19.74;70.94
75555;BME280;66087;53.126;17.960;2023-06-22T04:55:33;101160.89;;;19.80;70.52
75555;BME280;66087;53.126;17.960;2023-06-22T04:58:20;101162.75;;;19.81;70.39
75555;BME280;66087;53.126;17.960;2023-06-22T05:00:47;101166.41;;;19.84;70.29
75555;BME280;66087;53.126;17.960;2023-06-22T05:03:15;101170.79;;;19.87;70.13
75555;BME280;66087;53.126;17.960;2023-06-22T05:05:44;101176.29;;;19.91;70.07
75555;BME280;66087;53.126;17.960;2023-06-22T05:08:12;101174.38;;;19.91;70.12
75555;BME280;66087;53.126;17.960;2023-06-22T05:10:40;101178.05;;;19.93;69.82
75555;BME280;66087;53.126;17.960;2023-06-22T05:13:10;101189.92;;;19.95;69.57
75555;BME280;66087;53.126;17.960;2023-06-22T05:15:36;101184.32;;;19.93;69.63
75555;BME280;66087;53.126;17.960;2023-06-22T05:18:06;101180.67;;;19.95;69.66
75555;BME280;66087;53.126;17.960;2023-06-22T05:20:33;101181.95;;;19.98;69.42
75555;BME280;66087;53.126;17.960;2023-06-22T05:23:01;101182.85;;;20.02;69.27
75555;BME280;66087;53.126;17.960;2023-06-22T05:25:28;101186.16;;;20.03;69.23
75555;BME280;66087;53.126;17.960;2023-06-22T05:27:55;101195.66;;;20.10;69.16
75555;BME280;66087;53.126;17.960;2023-06-22T05:30:21;101196.38;;;20.15;68.83
75555;BME280;66087;53.126;17.960;2023-06-22T05:32:48;101198.42;;;20.18;68.84
75555;BME280;66087;53.126;17.960;2023-06-22T05:35:15;101200.02;;;20.23;68.82
75555;BME280;66087;53.126;17.960;2023-06-22T05:37:43;101194.90;;;20.25;68.62
75555;BME280;66087;53.126;17.960;2023-06-22T05:40:11;101199.33;;;20.27;68.63
75555;BME280;66087;53.126;17.960;2023-06-22T05:42:40;101199.31;;;20.32;68.46
75555;BME280;66087;53.126;17.960;2023-06-22T05:45:06;101198.17;;;20.36;68.42
75555;BME280;66087;53.126;17.960;2023-06-22T05:47:35;101189.77;;;20.42;68.05
75555;BME280;66087;53.126;17.960;2023-06-22T05:50:02;101189.11;;;20.47;67.93
75555;BME280;66087;53.126;17.960;2023-06-22T05:52:32;101190.43;;;20.51;67.74
75555;BME280;66087;53.126;17.960;2023-06-22T05:55:18;101191.98;;;20.56;67.52
75555;BME280;66087;53.126;17.960;2023-06-22T05:57:46;101190.86;;;20.56;67.51
75555;BME280;66087;53.126;17.960;2023-06-22T06:00:12;101190.20;;;20.58;67.22
75555;BME280;66087;53.126;17.960;2023-06-22T06:02:44;101192.10;;;20.62;67.28
75555;BME280;66087;53.126;17.960;2023-06-22T06:05:31;101190.98;;;20.67;67.13
75555;BME280;66087;53.126;17.960;2023-06-22T06:08:07;101183.98;;;20.73;66.90
75555;BME280;66087;53.126;17.960;2023-06-22T06:10:42;101191.00;;;20.80;66.65
75555;BME280;66087;53.126;17.960;2023-06-22T06:13:30;101186.89;;;20.82;66.43
75555;BME280;66087;53.126;17.960;2023-06-22T06:15:56;101181.27;;;20.87;66.28
75555;BME280;66087;53.126;17.960;2023-06-22T06:18:23;101180.23;;;20.94;65.98
75555;BME280;66087;53.126;17.960;2023-06-22T06:20:49;101185.41;;;21.00;65.71
75555;BME280;66087;53.126;17.960;2023-06-22T06:23:18;101193.23;;;21.03;65.30
75555;BME280;66087;53.126;17.960;2023-06-22T06:25:44;101193.91;;;21.06;64.95
75555;BME280;66087;53.126;17.960;2023-06-22T06:28:10;101207.80;;;21.09;64.60
75555;BME280;66087;53.126;17.960;2023-06-22T06:30:38;101201.39;;;21.14;64.34
75555;BME280;66087;53.126;17.960;2023-06-22T06:33:34;101207.69;;;21.19;64.22
75555;BME280;66087;53.126;17.960;2023-06-22T06:37:23;101202.98;;;21.29;63.31
75555;BME280;66087;53.126;17.960;2023-06-22T06:39:51;101203.31;;;21.35;63.24
75555;BME280;66087;53.126;17.960;2023-06-22T06:42:40;101196.64;;;21.40;63.08
75555;BME280;66087;53.126;17.960;2023-06-22T06:45:08;101195.39;;;21.44;62.61
75555;BME280;66087;53.126;17.960;2023-06-22T06:47:34;101192.44;;;21.50;62.18
75555;BME280;66087;53.126;17.960;2023-06-22T06:50:01;101194.30;;;21.55;61.61
75555;BME280;66087;53.126;17.960;2023-06-22T06:52:28;101190.54;;;21.58;61.67
75555;BME280;66087;53.126;17.960;2023-06-22T06:54:57;101188.17;;;21.62;61.81
75555;BME280;66087;53.126;17.960;2023-06-22T06:57:23;101186.44;;;21.68;61.17
75555;BME280;66087;53.126;17.960;2023-06-22T06:59:51;101195.46;;;21.71;60.69
75555;BME280;66087;53.126;17.960;2023-06-22T07:02:17;101205.08;;;21.74;60.45
75555;BME280;66087;53.126;17.960;2023-06-22T07:04:45;101198.11;;;21.74;60.05
75555;BME280;66087;53.126;17.960;2023-06-22T07:07:12;101193.52;;;21.75;60.13
75555;BME280;66087;53.126;17.960;2023-06-22T07:09:38;101190.52;;;21.82;60.12
75555;BME280;66087;53.126;17.960;2023-06-22T07:12:06;101195.19;;;21.90;60.17
75555;BME280;66087;53.126;17.960;2023-06-22T07:14:33;101191.88;;;21.96;59.93
75555;BME280;66087;53.126;17.960;2023-06-22T07:16:59;101195.46;;;22.03;59.97
75555;BME280;66087;53.126;17.960;2023-06-22T07:19:25;101205.48;;;22.08;59.22
75555;BME280;66087;53.126;17.960;2023-06-22T07:21:53;101206.48;;;22.05;58.38
75555;BME280;66087;53.126;17.960;2023-06-22T07:24:22;101210.39;;;22.05;58.73
75555;BME280;66087;53.126;17.960;2023-06-22T07:26:55;101212.91;;;22.07;57.86
75555;BME280;66087;53.126;17.960;2023-06-22T07:29:26;101211.27;;;22.08;57.90
75555;BME280;66087;53.126;17.960;2023-06-22T07:31:54;101217.84;;;22.11;57.61
75555;BME280;66087;53.126;17.960;2023-06-22T07:34:27;101220.98;;;22.15;57.52
75555;BME280;66087;53.126;17.960;2023-06-22T07:36:55;101213.39;;;22.18;57.81
75555;BME280;66087;53.126;17.960;2023-06-22T07:39:21;101213.15;;;22.19;57.27
75555;BME280;66087;53.126;17.960;2023-06-22T07:41:51;101221.08;;;22.23;57.16
75555;BME280;66087;53.126;17.960;2023-06-22T07:44:17;101220.90;;;22.27;57.08
75555;BME280;66087;53.126;17.960;2023-06-22T07:46:44;101218.91;;;22.32;57.24
75555;BME280;66087;53.126;17.960;2023-06-22T07:49:10;101216.30;;;22.37;57.11
75555;BME280;66087;53.126;17.960;2023-06-22T07:51:36;101218.94;;;22.43;56.71
75555;BME280;66087;53.126;17.960;2023-06-22T07:54:02;101215.57;;;22.47;56.51
75555;BME280;66087;53.126;17.960;2023-06-22T07:56:31;101214.60;;;22.51;56.59
75555;BME280;66087;53.126;17.960;2023-06-22T07:58:59;101216.52;;;22.57;56.56
75555;BME280;66087;53.126;17.960;2023-06-22T08:01:26;101215.91;;;22.62;56.53
75555;BME280;66087;53.126;17.960;2023-06-22T08:03:52;101213.24;;;22.62;56.10
75555;BME280;66087;53.126;17.960;2023-06-22T08:06:18;101227.14;;;22.72;55.51
75555;BME280;66087;53.126;17.960;2023-06-22T08:08:44;101224.54;;;22.77;55.36
75555;BME280;66087;53.126;17.960;2023-06-22T08:11:13;101233.63;;;22.78;54.88
75555;BME280;66087;53.126;17.960;2023-06-22T08:13:40;101233.05;;;22.79;54.45
75555;BME280;66087;53.126;17.960;2023-06-22T08:16:06;101233.56;;;22.83;54.57
75555;BME280;66087;53.126;17.960;2023-06-22T08:18:33;101245.23;;;22.87;54.45
75555;BME280;66087;53.126;17.960;2023-06-22T08:21:19;101243.73;;;22.91;54.66
75555;BME280;66087;53.126;17.960;2023-06-22T08:24:05;101236.31;;;22.97;54.88
75555;BME280;66087;53.126;17.960;2023-06-22T08:26:31;101230.17;;;23.03;54.65
75555;BME280;66087;53.126;17.960;2023-06-22T08:29:03;101227.87;;;23.11;53.84
75555;BME280;66087;53.126;17.960;2023-06-22T08:31:31;101237.42;;;23.18;54.01
75555;BME280;66087;53.126;17.960;2023-06-22T08:33:59;101229.73;;;23.24;53.63
75555;BME280;66087;53.126;17.960;2023-06-22T08:36:25;101227.80;;;23.30;53.92
75555;BME280;66087;53.126;17.960;2023-06-22T08:38:54;101227.15;;;23.38;53.80
75555;BME280;66087;53.126;17.960;2023-06-22T08:41:27;101231.14;;;23.43;53.65
75555;BME280;66087;53.126;17.960;2023-06-22T08:43:54;101230.83;;;23.49;53.23
75555;BME280;66087;53.126;17.960;2023-06-22T08:46:22;101226.56;;;23.51;52.95
75555;BME280;66087;53.126;17.960;2023-06-22T08:48:58;101225.95;;;23.51;52.39
75555;BME280;66087;53.126;17.960;2023-06-22T08:51:28;101231.23;;;23.49;51.94
75555;BME280;66087;53.126;17.960;2023-06-22T08:53:55;101229.59;;;23.47;52.08
75555;BME280;66087;53.126;17.960;2023-06-22T08:56:21;101230.20;;;23.51;52.37
75555;BME280;66087;53.126;17.960;2023-06-22T08:58:47;101225.14;;;23.56;52.43
75555;BME280;66087;53.126;17.960;2023-06-22T09:01:13;101221.89;;;23.63;52.34
75555;BME280;66087;53.126;17.960;2023-06-22T09:03:41;101228.80;;;23.71;51.83
75555;BME280;66087;53.126;17.960;2023-06-22T09:06:07;101228.98;;;23.77;50.97
75555;BME280;66087;53.126;17.960;2023-06-22T09:08:56;101230.70;;;23.85;50.70
75555;BME280;66087;53.126;17.960;2023-06-22T09:11:22;101229.48;;;23.89;50.00
75555;BME280;66087;53.126;17.960;2023-06-22T09:13:49;101220.42;;;23.95;50.40
75555;BME280;66087;53.126;17.960;2023-06-22T09:16:24;101213.84;;;23.98;49.95
75555;BME280;66087;53.126;17.960;2023-06-22T09:18:53;101211.14;;;24.10;49.81
75555;BME280;66087;53.126;17.960;2023-06-22T09:21:19;101209.02;;;24.17;49.58
75555;BME280;66087;53.126;17.960;2023-06-22T09:23:47;101203.93;;;24.23;48.56
75555;BME280;66087;53.126;17.960;2023-06-22T09:26:18;101209.55;;;24.29;48.61
75555;BME280;66087;53.126;17.960;2023-06-22T09:28:45;101205.20;;;24.33;48.31
75555;BME280;66087;53.126;17.960;2023-06-22T09:31:11;101192.44;;;24.35;48.07
75555;BME280;66087;53.126;17.960;2023-06-22T09:33:37;101201.56;;;24.48;47.56
75555;BME280;66087;53.126;17.960;2023-06-22T09:36:05;101202.28;;;24.56;47.53
75555;BME280;66087;53.126;17.960;2023-06-22T09:38:36;101194.51;;;24.63;47.44
75555;BME280;66087;53.126;17.960;2023-06-22T09:41:08;101198.90;;;24.73;47.36
75555;BME280;66087;53.126;17.960;2023-06-22T09:43:35;101198.92;;;24.82;46.35
75555;BME280;66087;53.126;17.960;2023-06-22T09:46:02;101196.05;;;24.88;45.85
75555;BME280;66087;53.126;17.960;2023-06-22T09:48:28;101195.60;;;24.96;45.79
75555;BME280;66087;53.126;17.960;2023-06-22T09:50:59;101193.77;;;25.01;45.27
75555;BME280;66087;53.126;17.960;2023-06-22T09:53:25;101189.58;;;25.08;46.11
75555;BME280;66087;53.126;17.960;2023-06-22T09:55:51;101195.30;;;25.18;45.82
75555;BME280;66087;53.126;17.960;2023-06-22T09:58:17;101194.80;;;25.27;45.13
75555;BME280;66087;53.126;17.960;2023-06-22T10:00:45;101196.84;;;25.30;44.93
75555;BME280;66087;53.126;17.960;2023-06-22T10:03:11;101193.64;;;25.35;45.28
75555;BME280;66087;53.126;17.960;2023-06-22T10:05:37;101195.70;;;25.44;44.88
75555;BME280;66087;53.126;17.960;2023-06-22T10:08:03;101191.38;;;25.53;44.86
75555;BME280;66087;53.126;17.960;2023-06-22T10:10:29;101195.25;;;25.57;44.69
75555;BME280;66087;53.126;17.960;2023-06-22T10:12:57;101186.70;;;25.62;44.50
75555;BME280;66087;53.126;17.960;2023-06-22T10:15:23;101185.67;;;25.68;44.37
75555;BME280;66087;53.126;17.960;2023-06-22T10:17:51;101183.77;;;25.74;43.61
75555;BME280;66087;53.126;17.960;2023-06-22T10:20:18;101192.41;;;25.84;43.24
75555;BME280;66087;53.126;17.960;2023-06-22T10:22:45;101189.70;;;25.90;42.99
75555;BME280;66087;53.126;17.960;2023-06-22T10:25:12;101182.27;;;25.94;42.34
75555;BME280;66087;53.126;17.960;2023-06-22T10:27:59;101179.05;;;26.01;42.58
75555;BME280;66087;53.126;17.960;2023-06-22T10:30:34;101163.52;;;25.92;42.32
75555;BME280;66087;53.126;17.960;2023-06-22T10:36:11;101155.60;;;26.01;42.12
75555;BME280;66087;53.126;17.960;2023-06-22T10:38:39;101163.02;;;26.12;41.54
75555;BME280;66087;53.126;17.960;2023-06-22T10:41:05;101182.43;;;26.31;41.63
75555;BME280;66087;53.126;17.960;2023-06-22T10:43:32;101185.73;;;26.42;41.65
75555;BME280;66087;53.126;17.960;2023-06-22T10:45:58;101185.89;;;26.50;41.48
75555;BME280;66087;53.126;17.960;2023-06-22T10:48:25;101184.83;;;26.54;41.06
75555;BME280;66087;53.126;17.960;2023-06-22T10:50:51;101176.67;;;26.61;41.06
75555;BME280;66087;53.126;17.960;2023-06-22T10:53:20;101166.62;;;26.75;40.67
75555;BME280;66087;53.126;17.960;2023-06-22T10:55:48;101168.62;;;26.88;40.01
75555;BME280;66087;53.126;17.960;2023-06-22T10:58:15;101170.73;;;26.95;39.47
75555;BME280;66087;53.126;17.960;2023-06-22T11:00:42;101163.48;;;26.99;39.35
75555;BME280;66087;53.126;17.960;2023-06-22T11:03:11;101168.17;;;27.12;39.70
75555;BME280;66087;53.126;17.960;2023-06-22T11:05:41;101172.61;;;27.19;39.51
75555;BME280;66087;53.126;17.960;2023-06-22T11:08:08;101165.59;;;27.26;39.55
75555;BME280;66087;53.126;17.960;2023-06-22T11:10:36;101162.40;;;27.38;39.42
75555;BME280;66087;53.126;17.960;2023-06-22T11:13:17;101169.91;;;27.51;39.24
75555;BME280;66087;53.126;17.960;2023-06-22T11:15:48;101178.20;;;27.64;38.83
75555;BME280;66087;53.126;17.960;2023-06-22T11:18:40;101168.44;;;27.74;38.70
75555;BME280;66087;53.126;17.960;2023-06-22T11:21:12;101171.82;;;27.90;38.66
75555;BME280;66087;53.126;17.960;2023-06-22T11:23:41;101177.73;;;28.02;38.34
75555;BME280;66087;53.126;17.960;2023-06-22T11:26:10;101174.41;;;28.04;37.92
75555;BME280;66087;53.126;17.960;2023-06-22T11:28:37;101171.94;;;28.02;37.72
75555;BME280;66087;53.126;17.960;2023-06-22T11:31:03;101168.24;;;27.98;37.66
75555;BME280;66087;53.126;17.960;2023-06-22T11:33:29;101177.17;;;28.05;37.33
75555;BME280;66087;53.126;17.960;2023-06-22T11:35:56;101170.02;;;28.12;37.13
75555;BME280;66087;53.126;17.960;2023-06-22T11:38:23;101173.08;;;28.22;36.54
75555;BME280;66087;53.126;17.960;2023-06-22T11:40:49;101172.27;;;28.27;36.14
75555;BME280;66087;53.126;17.960;2023-06-22T11:43:16;101164.48;;;28.27;35.21
75555;BME280;66087;53.126;17.960;2023-06-22T11:45:43;101170.58;;;28.37;35.79
75555;BME280;66087;53.126;17.960;2023-06-22T11:48:11;101169.23;;;28.38;35.26
75555;BME280;66087;53.126;17.960;2023-06-22T11:50:37;101161.56;;;28.37;35.48
75555;BME280;66087;53.126;17.960;2023-06-22T11:53:06;101163.48;;;28.45;35.54
75555;BME280;66087;53.126;17.960;2023-06-22T11:55:32;101162.83;;;28.57;35.06
75555;BME280;66087;53.126;17.960;2023-06-22T11:57:59;101155.59;;;28.73;35.33
75555;BME280;66087;53.126;17.960;2023-06-22T12:00:26;101158.67;;;28.92;34.67
75555;BME280;66087;53.126;17.960;2023-06-22T12:02:52;101157.15;;;28.97;34.62
75555;BME280;66087;53.126;17.960;2023-06-22T12:05:19;101150.99;;;29.07;34.72
75555;BME280;66087;53.126;17.960;2023-06-22T12:07:47;101151.13;;;29.14;34.00
75555;BME280;66087;53.126;17.960;2023-06-22T12:10:13;101138.77;;;29.17;33.80
75555;BME280;66087;53.126;17.960;2023-06-22T12:12:41;101136.30;;;29.30;33.90
75555;BME280;66087;53.126;17.960;2023-06-22T12:15:09;101128.09;;;29.51;33.82
75555;BME280;66087;53.126;17.960;2023-06-22T12:17:36;101126.64;;;29.68;33.07
75555;BME280;66087;53.126;17.960;2023-06-22T12:20:03;101136.34;;;29.77;33.18
75555;BME280;66087;53.126;17.960;2023-06-22T12:22:33;101130.44;;;29.81;32.91
75555;BME280;66087;53.126;17.960;2023-06-22T12:25:00;101132.07;;;29.90;33.06
75555;BME280;66087;53.126;17.960;2023-06-22T12:27:26;101135.91;;;29.99;31.43
75555;BME280;66087;53.126;17.960;2023-06-22T12:29:52;101122.86;;;29.91;31.99
75555;BME280;66087;53.126;17.960;2023-06-22T12:32:18;101122.89;;;30.00;32.55
75555;BME280;66087;53.126;17.960;2023-06-22T12:34:44;101125.13;;;30.20;32.73
75555;BME280;66087;53.126;17.960;2023-06-22T12:37:12;101123.81;;;30.39;32.08
75555;BME280;66087;53.126;17.960;2023-06-22T12:39:41;101119.40;;;30.47;32.01
75555;BME280;66087;53.126;17.960;2023-06-22T12:42:09;101118.61;;;30.57;30.80
75555;BME280;66087;53.126;17.960;2023-06-22T12:44:38;101117.73;;;31.21;30.12
75555;BME280;66087;53.126;17.960;2023-06-22T12:47:08;101120.95;;;32.45;29.69
75555;BME280;66087;53.126;17.960;2023-06-22T12:49:38;101112.14;;;33.43;27.39
75555;BME280;66087;53.126;17.960;2023-06-22T12:52:12;101104.73;;;34.19;28.05
75555;BME280;66087;53.126;17.960;2023-06-22T12:54:39;101105.34;;;35.19;27.37
75555;BME280;66087;53.126;17.960;2023-06-22T12:57:08;101100.42;;;35.70;25.23
75555;BME280;66087;53.126;17.960;2023-06-22T12:59:34;101099.46;;;36.11;25.88